East Cabot, Vermont
Current Conditions -  °F | °C
As of 9:55 AM on Wednesday 22 Oct 2014 (Local Time) from KCDA Reporting Station
Overcast Overcast  
Wind Chill: 45°   Ceiling: 5500
Heat Index: 49°   Visibility: 10mi
Dew Point: 42°   Wind: 10mph
Humidity: 76%   Direction: 360°N
Pressure: 30.2"   Gusts: NA
Location:  44.4018°N, 72.2973°W
Report Text: KCDA 221355Z AUTO 36009KT 10SM SCT022 SCT026 OVC055 09/05 A3020 RMK AO2 T00940053
Loading
Personal Weather Stations






























Interactive Weather Map
Tropical Storm Tracking
New forecast layout! Learn more

10-Day Weather Forecast

Advertisements
Track Severe Weather on mobile